sensor_id;sensor_type;location;lat;lon;timestamp;P1;durP1;ratioP1;P2;durP2;ratioP2
20480;SDS011;10399;50.754;3.366;2024-03-22T00:02:02;44.05;;;22.02;;
20480;SDS011;10399;50.754;3.366;2024-03-22T00:04:28;43.08;;;22.83;;
20480;SDS011;10399;50.754;3.366;2024-03-22T00:06:54;34.53;;;20.25;;
20480;SDS011;10399;50.754;3.366;2024-03-22T00:09:20;37.70;;;19.95;;
20480;SDS011;10399;50.754;3.366;2024-03-22T00:11:46;34.40;;;18.83;;
20480;SDS011;10399;50.754;3.366;2024-03-22T00:14:13;37.95;;;20.10;;
20480;SDS011;10399;50.754;3.366;2024-03-22T00:16:39;37.35;;;20.42;;
20480;SDS011;10399;50.754;3.366;2024-03-22T00:19:05;37.90;;;20.77;;
20480;SDS011;10399;50.754;3.366;2024-03-22T00:21:31;39.35;;;22.08;;
20480;SDS011;10399;50.754;3.366;2024-03-22T00:23:57;41.45;;;22.77;;
20480;SDS011;10399;50.754;3.366;2024-03-22T00:26:23;43.85;;;23.63;;
20480;SDS011;10399;50.754;3.366;2024-03-22T00:28:50;46.17;;;22.92;;
20480;SDS011;10399;50.754;3.366;2024-03-22T00:31:16;45.33;;;22.77;;
20480;SDS011;10399;50.754;3.366;2024-03-22T00:33:42;38.00;;;21.08;;
20480;SDS011;10399;50.754;3.366;2024-03-22T00:36:08;39.25;;;20.40;;
20480;SDS011;10399;50.754;3.366;2024-03-22T00:38:35;39.33;;;20.10;;
20480;SDS011;10399;50.754;3.366;2024-03-22T00:41:01;37.80;;;19.23;;
20480;SDS011;10399;50.754;3.366;2024-03-22T00:43:27;31.95;;;18.80;;
20480;SDS011;10399;50.754;3.366;2024-03-22T00:45:53;30.42;;;16.25;;
20480;SDS011;10399;50.754;3.366;2024-03-22T00:48:19;32.10;;;16.90;;
20480;SDS011;10399;50.754;3.366;2024-03-22T00:50:45;31.60;;;15.65;;
20480;SDS011;10399;50.754;3.366;2024-03-22T00:53:11;30.25;;;16.08;;
20480;SDS011;10399;50.754;3.366;2024-03-22T00:55:38;33.58;;;15.77;;
20480;SDS011;10399;50.754;3.366;2024-03-22T00:58:04;31.75;;;15.93;;
20480;SDS011;10399;50.754;3.366;2024-03-22T01:00:30;35.58;;;16.42;;
20480;SDS011;10399;50.754;3.366;2024-03-22T01:02:56;32.85;;;16.85;;
20480;SDS011;10399;50.754;3.366;2024-03-22T01:05:22;33.45;;;16.42;;
20480;SDS011;10399;50.754;3.366;2024-03-22T01:07:48;33.15;;;17.17;;
20480;SDS011;10399;50.754;3.366;2024-03-22T01:10:15;33.90;;;16.48;;
20480;SDS011;10399;50.754;3.366;2024-03-22T01:12:41;34.53;;;16.80;;
20480;SDS011;10399;50.754;3.366;2024-03-22T01:15:07;34.10;;;16.75;;
20480;SDS011;10399;50.754;3.366;2024-03-22T01:17:34;29.52;;;15.05;;
20480;SDS011;10399;50.754;3.366;2024-03-22T01:20:00;25.83;;;14.40;;
20480;SDS011;10399;50.754;3.366;2024-03-22T01:22:26;28.95;;;14.05;;
20480;SDS011;10399;50.754;3.366;2024-03-22T01:24:52;29.73;;;15.05;;
20480;SDS011;10399;50.754;3.366;2024-03-22T01:27:19;28.38;;;15.57;;
20480;SDS011;10399;50.754;3.366;2024-03-22T01:29:46;29.83;;;14.25;;
20480;SDS011;10399;50.754;3.366;2024-03-22T01:32:12;24.90;;;14.50;;
20480;SDS011;10399;50.754;3.366;2024-03-22T01:34:38;24.70;;;13.35;;
20480;SDS011;10399;50.754;3.366;2024-03-22T01:37:04;22.63;;;13.18;;
20480;SDS011;10399;50.754;3.366;2024-03-22T01:39:31;22.00;;;12.50;;
20480;SDS011;10399;50.754;3.366;2024-03-22T01:41:57;24.23;;;12.30;;
20480;SDS011;10399;50.754;3.366;2024-03-22T01:44:27;21.63;;;12.15;;
20480;SDS011;10399;50.754;3.366;2024-03-22T01:46:54;21.90;;;12.00;;
20480;SDS011;10399;50.754;3.366;2024-03-22T01:49:20;22.98;;;11.38;;
20480;SDS011;10399;50.754;3.366;2024-03-22T01:51:47;19.42;;;11.65;;
20480;SDS011;10399;50.754;3.366;2024-03-22T01:54:13;20.73;;;11.93;;
20480;SDS011;10399;50.754;3.366;2024-03-22T01:56:41;20.63;;;11.55;;
20480;SDS011;10399;50.754;3.366;2024-03-22T01:59:08;17.17;;;10.93;;
20480;SDS011;10399;50.754;3.366;2024-03-22T02:01:34;19.75;;;11.73;;
20480;SDS011;10399;50.754;3.366;2024-03-22T02:04:01;18.80;;;11.60;;
20480;SDS011;10399;50.754;3.366;2024-03-22T02:06:27;19.17;;;11.45;;
20480;SDS011;10399;50.754;3.366;2024-03-22T02:08:53;20.20;;;11.55;;
20480;SDS011;10399;50.754;3.366;2024-03-22T02:11:19;15.18;;;10.90;;
20480;SDS011;10399;50.754;3.366;2024-03-22T02:13:46;20.33;;;12.35;;
20480;SDS011;10399;50.754;3.366;2024-03-22T02:16:12;20.23;;;11.65;;
20480;SDS011;10399;50.754;3.366;2024-03-22T02:18:38;19.65;;;11.85;;
20480;SDS011;10399;50.754;3.366;2024-03-22T02:21:04;17.33;;;11.23;;
20480;SDS011;10399;50.754;3.366;2024-03-22T02:25:56;23.08;;;12.13;;
20480;SDS011;10399;50.754;3.366;2024-03-22T02:28:22;21.35;;;11.75;;
20480;SDS011;10399;50.754;3.366;2024-03-22T02:30:49;19.17;;;11.80;;
20480;SDS011;10399;50.754;3.366;2024-03-22T02:33:15;20.30;;;11.50;;
20480;SDS011;10399;50.754;3.366;2024-03-22T02:35:41;19.20;;;11.77;;
20480;SDS011;10399;50.754;3.366;2024-03-22T02:38:07;18.90;;;10.75;;
20480;SDS011;10399;50.754;3.366;2024-03-22T02:40:33;19.58;;;11.10;;
20480;SDS011;10399;50.754;3.366;2024-03-22T02:42:59;18.88;;;11.00;;
20480;SDS011;10399;50.754;3.366;2024-03-22T02:45:25;18.23;;;10.57;;
20480;SDS011;10399;50.754;3.366;2024-03-22T02:47:50;18.30;;;10.23;;
20480;SDS011;10399;50.754;3.366;2024-03-22T02:50:16;20.55;;;10.52;;
20480;SDS011;10399;50.754;3.366;2024-03-22T02:52:42;18.20;;;10.25;;
20480;SDS011;10399;50.754;3.366;2024-03-22T02:55:08;22.23;;;11.30;;
20480;SDS011;10399;50.754;3.366;2024-03-22T02:57:34;19.25;;;10.27;;
20480;SDS011;10399;50.754;3.366;2024-03-22T03:00:00;21.15;;;10.98;;
20480;SDS011;10399;50.754;3.366;2024-03-22T03:02:27;19.45;;;10.52;;
20480;SDS011;10399;50.754;3.366;2024-03-22T03:04:52;19.00;;;10.68;;
20480;SDS011;10399;50.754;3.366;2024-03-22T03:07:18;19.63;;;11.32;;
20480;SDS011;10399;50.754;3.366;2024-03-22T03:09:44;18.60;;;10.30;;
20480;SDS011;10399;50.754;3.366;2024-03-22T03:12:12;22.60;;;10.90;;
20480;SDS011;10399;50.754;3.366;2024-03-22T03:14:38;20.90;;;10.63;;
20480;SDS011;10399;50.754;3.366;2024-03-22T03:17:04;21.75;;;11.27;;
20480;SDS011;10399;50.754;3.366;2024-03-22T03:19:30;22.70;;;11.18;;
20480;SDS011;10399;50.754;3.366;2024-03-22T03:21:56;17.50;;;10.70;;
20480;SDS011;10399;50.754;3.366;2024-03-22T03:24:22;20.35;;;11.35;;
20480;SDS011;10399;50.754;3.366;2024-03-22T03:26:49;20.15;;;10.90;;
20480;SDS011;10399;50.754;3.366;2024-03-22T03:29:15;18.15;;;10.15;;
20480;SDS011;10399;50.754;3.366;2024-03-22T03:31:41;18.40;;;10.10;;
20480;SDS011;10399;50.754;3.366;2024-03-22T03:34:07;18.83;;;10.73;;
20480;SDS011;10399;50.754;3.366;2024-03-22T03:36:33;19.92;;;10.70;;
20480;SDS011;10399;50.754;3.366;2024-03-22T03:38:58;18.15;;;10.63;;
20480;SDS011;10399;50.754;3.366;2024-03-22T03:41:24;22.70;;;11.43;;
20480;SDS011;10399;50.754;3.366;2024-03-22T03:43:51;19.55;;;10.68;;
20480;SDS011;10399;50.754;3.366;2024-03-22T03:46:17;20.30;;;11.35;;
20480;SDS011;10399;50.754;3.366;2024-03-22T03:48:43;20.98;;;10.90;;
20480;SDS011;10399;50.754;3.366;2024-03-22T03:51:09;21.85;;;11.25;;
20480;SDS011;10399;50.754;3.366;2024-03-22T03:53:35;18.67;;;10.73;;
20480;SDS011;10399;50.754;3.366;2024-03-22T03:56:01;22.27;;;11.55;;
20480;SDS011;10399;50.754;3.366;2024-03-22T03:58:27;20.25;;;11.32;;
20480;SDS011;10399;50.754;3.366;2024-03-22T04:00:53;25.48;;;11.82;;
20480;SDS011;10399;50.754;3.366;2024-03-22T04:03:19;20.73;;;10.82;;
20480;SDS011;10399;50.754;3.366;2024-03-22T04:05:45;21.83;;;11.27;;
20480;SDS011;10399;50.754;3.366;2024-03-22T04:08:11;18.42;;;10.07;;
20480;SDS011;10399;50.754;3.366;2024-03-22T04:10:37;18.65;;;9.60;;
20480;SDS011;10399;50.754;3.366;2024-03-22T04:13:03;20.90;;;11.27;;
20480;SDS011;10399;50.754;3.366;2024-03-22T04:15:29;22.08;;;10.82;;
20480;SDS011;10399;50.754;3.366;2024-03-22T04:17:59;19.48;;;10.88;;
20480;SDS011;10399;50.754;3.366;2024-03-22T04:20:25;19.02;;;10.82;;
20480;SDS011;10399;50.754;3.366;2024-03-22T04:22:52;19.70;;;11.10;;
20480;SDS011;10399;50.754;3.366;2024-03-22T04:25:18;23.08;;;11.68;;
20480;SDS011;10399;50.754;3.366;2024-03-22T04:27:44;23.95;;;12.00;;
20480;SDS011;10399;50.754;3.366;2024-03-22T04:30:10;19.55;;;10.52;;
20480;SDS011;10399;50.754;3.366;2024-03-22T04:32:36;19.33;;;10.55;;
20480;SDS011;10399;50.754;3.366;2024-03-22T04:35:03;18.80;;;10.73;;
20480;SDS011;10399;50.754;3.366;2024-03-22T04:37:29;18.58;;;10.40;;
20480;SDS011;10399;50.754;3.366;2024-03-22T04:39:55;19.52;;;11.35;;
20480;SDS011;10399;50.754;3.366;2024-03-22T04:42:21;18.88;;;11.02;;
20480;SDS011;10399;50.754;3.366;2024-03-22T04:44:47;21.40;;;10.57;;
20480;SDS011;10399;50.754;3.366;2024-03-22T04:47:13;19.48;;;9.57;;
20480;SDS011;10399;50.754;3.366;2024-03-22T04:49:39;18.55;;;9.45;;
20480;SDS011;10399;50.754;3.366;2024-03-22T04:52:06;15.13;;;8.40;;
20480;SDS011;10399;50.754;3.366;2024-03-22T04:54:32;15.43;;;8.18;;
20480;SDS011;10399;50.754;3.366;2024-03-22T04:56:58;10.73;;;6.47;;
20480;SDS011;10399;50.754;3.366;2024-03-22T04:59:25;11.80;;;6.32;;
20480;SDS011;10399;50.754;3.366;2024-03-22T05:01:51;10.23;;;5.70;;
20480;SDS011;10399;50.754;3.366;2024-03-22T05:04:16;14.00;;;5.88;;
20480;SDS011;10399;50.754;3.366;2024-03-22T05:06:42;9.63;;;6.03;;
20480;SDS011;10399;50.754;3.366;2024-03-22T05:09:08;9.38;;;5.75;;
20480;SDS011;10399;50.754;3.366;2024-03-22T05:11:35;11.18;;;7.00;;
20480;SDS011;10399;50.754;3.366;2024-03-22T05:14:01;11.38;;;6.35;;
20480;SDS011;10399;50.754;3.366;2024-03-22T05:16:28;13.60;;;6.50;;
20480;SDS011;10399;50.754;3.366;2024-03-22T05:18:55;11.57;;;6.35;;
20480;SDS011;10399;50.754;3.366;2024-03-22T05:21:21;10.75;;;6.28;;
20480;SDS011;10399;50.754;3.366;2024-03-22T05:23:47;11.57;;;6.10;;
20480;SDS011;10399;50.754;3.366;2024-03-22T05:26:13;12.10;;;6.30;;
20480;SDS011;10399;50.754;3.366;2024-03-22T05:28:39;9.38;;;6.22;;
20480;SDS011;10399;50.754;3.366;2024-03-22T05:31:05;14.65;;;7.25;;
20480;SDS011;10399;50.754;3.366;2024-03-22T05:33:31;11.18;;;6.75;;
20480;SDS011;10399;50.754;3.366;2024-03-22T05:35:57;11.30;;;6.75;;
20480;SDS011;10399;50.754;3.366;2024-03-22T05:38:24;13.13;;;6.68;;
20480;SDS011;10399;50.754;3.366;2024-03-22T05:40:50;13.07;;;7.15;;
20480;SDS011;10399;50.754;3.366;2024-03-22T05:43:16;11.15;;;6.97;;
20480;SDS011;10399;50.754;3.366;2024-03-22T05:45:43;12.30;;;7.05;;
20480;SDS011;10399;50.754;3.366;2024-03-22T05:48:08;13.75;;;7.07;;
20480;SDS011;10399;50.754;3.366;2024-03-22T05:50:35;12.13;;;7.10;;
20480;SDS011;10399;50.754;3.366;2024-03-22T05:53:00;14.50;;;7.32;;
20480;SDS011;10399;50.754;3.366;2024-03-22T05:55:26;11.60;;;7.53;;
20480;SDS011;10399;50.754;3.366;2024-03-22T05:57:56;13.40;;;7.60;;
20480;SDS011;10399;50.754;3.366;2024-03-22T06:00:22;16.13;;;8.32;;
20480;SDS011;10399;50.754;3.366;2024-03-22T06:02:48;15.93;;;8.63;;
20480;SDS011;10399;50.754;3.366;2024-03-22T06:05:14;14.50;;;8.63;;
20480;SDS011;10399;50.754;3.366;2024-03-22T06:07:42;17.35;;;9.10;;
20480;SDS011;10399;50.754;3.366;2024-03-22T06:10:10;13.43;;;8.57;;
20480;SDS011;10399;50.754;3.366;2024-03-22T06:12:36;15.25;;;8.35;;
20480;SDS011;10399;50.754;3.366;2024-03-22T06:15:03;18.92;;;9.02;;
20480;SDS011;10399;50.754;3.366;2024-03-22T06:17:34;15.02;;;8.55;;
20480;SDS011;10399;50.754;3.366;2024-03-22T06:20:00;16.58;;;8.20;;
20480;SDS011;10399;50.754;3.366;2024-03-22T06:22:27;14.02;;;9.02;;
20480;SDS011;10399;50.754;3.366;2024-03-22T06:24:53;14.60;;;8.82;;
20480;SDS011;10399;50.754;3.366;2024-03-22T06:27:19;17.98;;;8.70;;
20480;SDS011;10399;50.754;3.366;2024-03-22T06:29:45;12.38;;;7.88;;
20480;SDS011;10399;50.754;3.366;2024-03-22T06:32:14;13.07;;;8.40;;
20480;SDS011;10399;50.754;3.366;2024-03-22T06:34:40;16.88;;;9.65;;
20480;SDS011;10399;50.754;3.366;2024-03-22T06:37:06;15.40;;;9.02;;
20480;SDS011;10399;50.754;3.366;2024-03-22T06:39:32;13.73;;;8.52;;
20480;SDS011;10399;50.754;3.366;2024-03-22T06:41:58;15.52;;;9.38;;
20480;SDS011;10399;50.754;3.366;2024-03-22T06:44:24;19.75;;;9.13;;
20480;SDS011;10399;50.754;3.366;2024-03-22T06:46:50;16.65;;;9.13;;
20480;SDS011;10399;50.754;3.366;2024-03-22T06:49:16;15.13;;;8.75;;
20480;SDS011;10399;50.754;3.366;2024-03-22T06:51:42;16.58;;;9.43;;
20480;SDS011;10399;50.754;3.366;2024-03-22T06:54:08;18.02;;;9.25;;
20480;SDS011;10399;50.754;3.366;2024-03-22T06:56:35;16.17;;;8.75;;
20480;SDS011;10399;50.754;3.366;2024-03-22T06:59:01;18.73;;;10.30;;
20480;SDS011;10399;50.754;3.366;2024-03-22T07:01:27;16.10;;;9.98;;
20480;SDS011;10399;50.754;3.366;2024-03-22T07:03:53;17.92;;;9.25;;
20480;SDS011;10399;50.754;3.366;2024-03-22T07:06:19;18.70;;;9.98;;
20480;SDS011;10399;50.754;3.366;2024-03-22T07:08:45;21.35;;;10.63;;
20480;SDS011;10399;50.754;3.366;2024-03-22T07:11:11;15.20;;;9.32;;
20480;SDS011;10399;50.754;3.366;2024-03-22T07:13:38;17.40;;;9.48;;
20480;SDS011;10399;50.754;3.366;2024-03-22T07:16:04;16.40;;;9.60;;
20480;SDS011;10399;50.754;3.366;2024-03-22T07:18:30;17.83;;;9.93;;
20480;SDS011;10399;50.754;3.366;2024-03-22T07:20:56;23.05;;;10.73;;
20480;SDS011;10399;50.754;3.366;2024-03-22T07:23:23;18.60;;;9.75;;
20480;SDS011;10399;50.754;3.366;2024-03-22T07:25:49;24.65;;;10.55;;
20480;SDS011;10399;50.754;3.366;2024-03-22T07:28:15;18.95;;;10.32;;
20480;SDS011;10399;50.754;3.366;2024-03-22T07:30:41;18.45;;;10.23;;
20480;SDS011;10399;50.754;3.366;2024-03-22T07:33:09;23.67;;;9.93;;
20480;SDS011;10399;50.754;3.366;2024-03-22T07:35:39;19.40;;;9.73;;
20480;SDS011;10399;50.754;3.366;2024-03-22T07:38:05;20.15;;;9.00;;
20480;SDS011;10399;50.754;3.366;2024-03-22T07:40:31;16.90;;;9.98;;
20480;SDS011;10399;50.754;3.366;2024-03-22T07:42:56;20.00;;;9.63;;
20480;SDS011;10399;50.754;3.366;2024-03-22T07:45:24;19.27;;;9.00;;
20480;SDS011;10399;50.754;3.366;2024-03-22T07:47:50;23.42;;;10.77;;
20480;SDS011;10399;50.754;3.366;2024-03-22T07:50:16;23.83;;;9.80;;
20480;SDS011;10399;50.754;3.366;2024-03-22T07:52:42;20.13;;;8.88;;
20480;SDS011;10399;50.754;3.366;2024-03-22T07:55:08;22.88;;;8.48;;
20480;SDS011;10399;50.754;3.366;2024-03-22T07:57:34;20.20;;;8.52;;
20480;SDS011;10399;50.754;3.366;2024-03-22T08:00:00;14.07;;;8.07;;
20480;SDS011;10399;50.754;3.366;2024-03-22T08:02:26;16.85;;;8.63;;
20480;SDS011;10399;50.754;3.366;2024-03-22T08:04:52;14.73;;;8.27;;
20480;SDS011;10399;50.754;3.366;2024-03-22T08:07:19;19.05;;;8.20;;
20480;SDS011;10399;50.754;3.366;2024-03-22T08:09:45;17.05;;;7.75;;
20480;SDS011;10399;50.754;3.366;2024-03-22T08:12:10;13.77;;;7.57;;
20480;SDS011;10399;50.754;3.366;2024-03-22T08:14:37;16.05;;;7.68;;
20480;SDS011;10399;50.754;3.366;2024-03-22T08:17:03;20.35;;;8.07;;
20480;SDS011;10399;50.754;3.366;2024-03-22T08:19:29;19.50;;;8.25;;
20480;SDS011;10399;50.754;3.366;2024-03-22T08:21:55;15.93;;;7.85;;
20480;SDS011;10399;50.754;3.366;2024-03-22T08:24:21;23.05;;;8.25;;
20480;SDS011;10399;50.754;3.366;2024-03-22T08:26:47;22.65;;;7.88;;
20480;SDS011;10399;50.754;3.366;2024-03-22T08:29:13;17.05;;;8.02;;
20480;SDS011;10399;50.754;3.366;2024-03-22T08:31:40;17.00;;;8.10;;
20480;SDS011;10399;50.754;3.366;2024-03-22T08:34:07;16.83;;;8.43;;
20480;SDS011;10399;50.754;3.366;2024-03-22T08:36:34;15.65;;;8.40;;
20480;SDS011;10399;50.754;3.366;2024-03-22T08:38:59;16.60;;;8.23;;
20480;SDS011;10399;50.754;3.366;2024-03-22T08:41:25;15.15;;;8.13;;
20480;SDS011;10399;50.754;3.366;2024-03-22T08:43:51;20.98;;;8.82;;
20480;SDS011;10399;50.754;3.366;2024-03-22T08:46:17;27.90;;;8.38;;
20480;SDS011;10399;50.754;3.366;2024-03-22T08:48:44;25.77;;;8.20;;
20480;SDS011;10399;50.754;3.366;2024-03-22T08:51:10;23.52;;;8.48;;
20480;SDS011;10399;50.754;3.366;2024-03-22T08:53:36;18.95;;;8.32;;
20480;SDS011;10399;50.754;3.366;2024-03-22T08:56:02;18.15;;;8.20;;
20480;SDS011;10399;50.754;3.366;2024-03-22T08:58:29;12.57;;;7.95;;
20480;SDS011;10399;50.754;3.366;2024-03-22T09:00:54;19.83;;;7.90;;
20480;SDS011;10399;50.754;3.366;2024-03-22T09:03:20;13.48;;;8.35;;
20480;SDS011;10399;50.754;3.366;2024-03-22T09:05:46;16.70;;;7.88;;
20480;SDS011;10399;50.754;3.366;2024-03-22T09:08:13;17.33;;;8.50;;
20480;SDS011;10399;50.754;3.366;2024-03-22T09:10:39;15.48;;;8.13;;
20480;SDS011;10399;50.754;3.366;2024-03-22T09:13:05;18.23;;;7.20;;
20480;SDS011;10399;50.754;3.366;2024-03-22T09:15:31;16.40;;;7.22;;
20480;SDS011;10399;50.754;3.366;2024-03-22T09:17:57;13.95;;;7.32;;
20480;SDS011;10399;50.754;3.366;2024-03-22T09:20:23;17.75;;;7.30;;
20480;SDS011;10399;50.754;3.366;2024-03-22T09:22:49;15.80;;;7.22;;
20480;SDS011;10399;50.754;3.366;2024-03-22T09:25:15;16.42;;;6.47;;
20480;SDS011;10399;50.754;3.366;2024-03-22T09:27:41;13.90;;;6.38;;
20480;SDS011;10399;50.754;3.366;2024-03-22T09:30:07;16.55;;;6.97;;
20480;SDS011;10399;50.754;3.366;2024-03-22T09:32:35;12.70;;;6.55;;
20480;SDS011;10399;50.754;3.366;2024-03-22T09:35:01;15.85;;;6.63;;
20480;SDS011;10399;50.754;3.366;2024-03-22T09:37:27;13.10;;;6.35;;
20480;SDS011;10399;50.754;3.366;2024-03-22T09:39:53;18.67;;;6.38;;
20480;SDS011;10399;50.754;3.366;2024-03-22T09:42:19;15.40;;;6.63;;
20480;SDS011;10399;50.754;3.366;2024-03-22T09:44:50;10.40;;;5.57;;
20480;SDS011;10399;50.754;3.366;2024-03-22T09:47:17;23.48;;;6.72;;
20480;SDS011;10399;50.754;3.366;2024-03-22T09:49:45;11.30;;;5.75;;
20480;SDS011;10399;50.754;3.366;2024-03-22T09:52:14;14.27;;;6.72;;
20480;SDS011;10399;50.754;3.366;2024-03-22T09:54:41;16.27;;;5.85;;
20480;SDS011;10399;50.754;3.366;2024-03-22T09:57:09;11.55;;;5.35;;
20480;SDS011;10399;50.754;3.366;2024-03-22T09:59:38;15.10;;;5.63;;
20480;SDS011;10399;50.754;3.366;2024-03-22T10:02:05;14.77;;;6.05;;
20480;SDS011;10399;50.754;3.366;2024-03-22T10:04:34;10.90;;;5.45;;
20480;SDS011;10399;50.754;3.366;2024-03-22T10:07:02;16.33;;;6.80;;
20480;SDS011;10399;50.754;3.366;2024-03-22T10:09:28;12.85;;;6.20;;
20480;SDS011;10399;50.754;3.366;2024-03-22T10:11:55;14.75;;;6.68;;
20480;SDS011;10399;50.754;3.366;2024-03-22T10:14:22;12.85;;;5.97;;
20480;SDS011;10399;50.754;3.366;2024-03-22T10:16:51;13.35;;;7.03;;
20480;SDS011;10399;50.754;3.366;2024-03-22T10:19:22;14.98;;;6.95;;
20480;SDS011;10399;50.754;3.366;2024-03-22T10:22:01;13.30;;;5.35;;
20480;SDS011;10399;50.754;3.366;2024-03-22T10:24:27;12.23;;;5.68;;
20480;SDS011;10399;50.754;3.366;2024-03-22T10:26:54;12.23;;;4.68;;
20480;SDS011;10399;50.754;3.366;2024-03-22T10:29:20;11.63;;;5.05;;
20480;SDS011;10399;50.754;3.366;2024-03-22T10:31:47;16.20;;;5.85;;
20480;SDS011;10399;50.754;3.366;2024-03-22T10:34:15;17.90;;;5.68;;
20480;SDS011;10399;50.754;3.366;2024-03-22T10:36:42;15.18;;;5.35;;
20480;SDS011;10399;50.754;3.366;2024-03-22T10:39:09;14.20;;;5.97;;
20480;SDS011;10399;50.754;3.366;2024-03-22T10:41:38;17.00;;;5.75;;
20480;SDS011;10399;50.754;3.366;2024-03-22T10:44:04;13.63;;;5.22;;
20480;SDS011;10399;50.754;3.366;2024-03-22T10:46:30;15.55;;;5.20;;
20480;SDS011;10399;50.754;3.366;2024-03-22T10:48:57;16.92;;;5.50;;
20480;SDS011;10399;50.754;3.366;2024-03-22T10:51:23;16.67;;;5.03;;
20480;SDS011;10399;50.754;3.366;2024-03-22T10:53:52;20.25;;;5.85;;
20480;SDS011;10399;50.754;3.366;2024-03-22T10:56:20;13.63;;;5.00;;
20480;SDS011;10399;50.754;3.366;2024-03-22T10:58:47;10.27;;;4.68;;
20480;SDS011;10399;50.754;3.366;2024-03-22T11:01:25;12.75;;;5.30;;
20480;SDS011;10399;50.754;3.366;2024-03-22T11:04:02;16.63;;;5.40;;
20480;SDS011;10399;50.754;3.366;2024-03-22T11:06:30;20.17;;;6.22;;
20480;SDS011;10399;50.754;3.366;2024-03-22T11:08:59;14.07;;;5.45;;
20480;SDS011;10399;50.754;3.366;2024-03-22T11:11:29;15.18;;;5.60;;
20480;SDS011;10399;50.754;3.366;2024-03-22T11:13:56;14.52;;;5.30;;
20480;SDS011;10399;50.754;3.366;2024-03-22T11:16:23;12.90;;;5.95;;
20480;SDS011;10399;50.754;3.366;2024-03-22T11:18:49;15.18;;;5.85;;
20480;SDS011;10399;50.754;3.366;2024-03-22T11:21:15;20.23;;;6.00;;
20480;SDS011;10399;50.754;3.366;2024-03-22T11:23:44;18.02;;;5.88;;
20480;SDS011;10399;50.754;3.366;2024-03-22T11:26:11;12.05;;;6.00;;
20480;SDS011;10399;50.754;3.366;2024-03-22T11:28:38;13.65;;;6.30;;
20480;SDS011;10399;50.754;3.366;2024-03-22T11:31:04;18.63;;;6.50;;
20480;SDS011;10399;50.754;3.366;2024-03-22T11:33:31;18.23;;;7.20;;
20480;SDS011;10399;50.754;3.366;2024-03-22T11:36:03;16.05;;;6.35;;
20480;SDS011;10399;50.754;3.366;2024-03-22T11:38:31;17.05;;;6.10;;
20480;SDS011;10399;50.754;3.366;2024-03-22T11:40:57;16.60;;;6.32;;
20480;SDS011;10399;50.754;3.366;2024-03-22T11:43:28;21.10;;;6.55;;
20480;SDS011;10399;50.754;3.366;2024-03-22T11:45:55;13.63;;;6.20;;
20480;SDS011;10399;50.754;3.366;2024-03-22T11:48:21;14.05;;;6.63;;
20480;SDS011;10399;50.754;3.366;2024-03-22T11:50:48;16.73;;;6.95;;
20480;SDS011;10399;50.754;3.366;2024-03-22T11:53:15;16.08;;;6.80;;
20480;SDS011;10399;50.754;3.366;2024-03-22T11:55:42;17.92;;;6.28;;
20480;SDS011;10399;50.754;3.366;2024-03-22T11:58:11;16.10;;;6.40;;
20480;SDS011;10399;50.754;3.366;2024-03-22T12:00:38;21.08;;;6.85;;
20480;SDS011;10399;50.754;3.366;2024-03-22T12:03:04;19.65;;;7.15;;
20480;SDS011;10399;50.754;3.366;2024-03-22T12:05:33;15.90;;;7.43;;
20480;SDS011;10399;50.754;3.366;2024-03-22T12:07:59;17.90;;;8.30;;
20480;SDS011;10399;50.754;3.366;2024-03-22T12:10:25;18.90;;;7.53;;
20480;SDS011;10399;50.754;3.366;2024-03-22T12:12:51;18.25;;;7.97;;
20480;SDS011;10399;50.754;3.366;2024-03-22T12:15:19;18.10;;;7.30;;
20480;SDS011;10399;50.754;3.366;2024-03-22T12:17:45;18.02;;;8.93;;
20480;SDS011;10399;50.754;3.366;2024-03-22T12:20:11;21.85;;;8.88;;
20480;SDS011;10399;50.754;3.366;2024-03-22T12:22:37;15.25;;;8.02;;
20480;SDS011;10399;50.754;3.366;2024-03-22T12:25:03;25.77;;;8.13;;
20480;SDS011;10399;50.754;3.366;2024-03-22T12:27:31;18.98;;;8.63;;
20480;SDS011;10399;50.754;3.366;2024-03-22T12:29:57;17.83;;;8.45;;
20480;SDS011;10399;50.754;3.366;2024-03-22T12:32:23;19.17;;;7.78;;
20480;SDS011;10399;50.754;3.366;2024-03-22T12:34:49;17.83;;;9.07;;
20480;SDS011;10399;50.754;3.366;2024-03-22T12:37:15;18.10;;;8.48;;
20480;SDS011;10399;50.754;3.366;2024-03-22T12:39:41;18.23;;;9.40;;
20480;SDS011;10399;50.754;3.366;2024-03-22T12:42:07;18.60;;;9.27;;
20480;SDS011;10399;50.754;3.366;2024-03-22T12:44:33;19.48;;;9.57;;
20480;SDS011;10399;50.754;3.366;2024-03-22T12:46:59;22.30;;;9.52;;
20480;SDS011;10399;50.754;3.366;2024-03-22T12:49:25;21.48;;;9.93;;
20480;SDS011;10399;50.754;3.366;2024-03-22T12:51:51;19.40;;;9.68;;
20480;SDS011;10399;50.754;3.366;2024-03-22T12:54:17;19.35;;;9.32;;
20480;SDS011;10399;50.754;3.366;2024-03-22T12:56:44;23.17;;;9.20;;
20480;SDS011;10399;50.754;3.366;2024-03-22T12:59:11;19.00;;;8.85;;
20480;SDS011;10399;50.754;3.366;2024-03-22T13:01:37;17.42;;;8.95;;
20480;SDS011;10399;50.754;3.366;2024-03-22T13:04:03;19.13;;;8.95;;
20480;SDS011;10399;50.754;3.366;2024-03-22T13:06:29;20.45;;;9.70;;
20480;SDS011;10399;50.754;3.366;2024-03-22T13:08:55;18.98;;;8.93;;
20480;SDS011;10399;50.754;3.366;2024-03-22T13:11:22;19.60;;;9.30;;
20480;SDS011;10399;50.754;3.366;2024-03-22T13:13:48;21.30;;;9.35;;
20480;SDS011;10399;50.754;3.366;2024-03-22T13:16:14;17.15;;;8.35;;
20480;SDS011;10399;50.754;3.366;2024-03-22T13:18:41;19.65;;;8.57;;
20480;SDS011;10399;50.754;3.366;2024-03-22T13:21:08;20.83;;;8.13;;
20480;SDS011;10399;50.754;3.366;2024-03-22T13:23:36;19.98;;;7.90;;
20480;SDS011;10399;50.754;3.366;2024-03-22T13:26:03;14.93;;;7.85;;
20480;SDS011;10399;50.754;3.366;2024-03-22T13:28:29;12.95;;;7.70;;
20480;SDS011;10399;50.754;3.366;2024-03-22T13:31:05;18.45;;;8.05;;
20480;SDS011;10399;50.754;3.366;2024-03-22T13:33:34;14.93;;;7.47;;
20480;SDS011;10399;50.754;3.366;2024-03-22T13:36:00;17.52;;;7.40;;
20480;SDS011;10399;50.754;3.366;2024-03-22T13:38:26;15.30;;;7.13;;
20480;SDS011;10399;50.754;3.366;2024-03-22T13:40:54;16.48;;;7.60;;
20480;SDS011;10399;50.754;3.366;2024-03-22T13:43:29;10.95;;;5.30;;
20480;SDS011;10399;50.754;3.366;2024-03-22T13:45:55;9.80;;;5.65;;
20480;SDS011;10399;50.754;3.366;2024-03-22T13:48:22;8.35;;;5.88;;
20480;SDS011;10399;50.754;3.366;2024-03-22T13:50:52;13.30;;;6.50;;
20480;SDS011;10399;50.754;3.366;2024-03-22T13:53:19;13.13;;;6.32;;
20480;SDS011;10399;50.754;3.366;2024-03-22T13:55:47;12.68;;;6.85;;
20480;SDS011;10399;50.754;3.366;2024-03-22T13:58:18;12.23;;;6.30;;
20480;SDS011;10399;50.754;3.366;2024-03-22T14:00:44;15.15;;;7.25;;
20480;SDS011;10399;50.754;3.366;2024-03-22T14:03:10;16.42;;;8.07;;
20480;SDS011;10399;50.754;3.366;2024-03-22T14:05:36;14.00;;;7.22;;
20480;SDS011;10399;50.754;3.366;2024-03-22T14:08:02;15.02;;;7.60;;
20480;SDS011;10399;50.754;3.366;2024-03-22T14:10:31;11.50;;;7.07;;
20480;SDS011;10399;50.754;3.366;2024-03-22T14:12:57;11.38;;;7.28;;
20480;SDS011;10399;50.754;3.366;2024-03-22T14:15:24;18.20;;;8.65;;
20480;SDS011;10399;50.754;3.366;2024-03-22T14:17:52;13.07;;;7.53;;
20480;SDS011;10399;50.754;3.366;2024-03-22T14:20:18;11.38;;;7.80;;
20480;SDS011;10399;50.754;3.366;2024-03-22T14:22:44;16.90;;;7.82;;
20480;SDS011;10399;50.754;3.366;2024-03-22T14:25:11;12.35;;;6.88;;
20480;SDS011;10399;50.754;3.366;2024-03-22T14:27:38;12.80;;;7.55;;
20480;SDS011;10399;50.754;3.366;2024-03-22T14:30:04;13.00;;;7.18;;